sensor_id;sensor_type;location;lat;lon;timestamp;P1;durP1;ratioP1;P2;durP2;ratioP2
15931;SDS011;8065;49.520;11.284;2023-08-31T00:01:18;3.73;;;2.83;;
15931;SDS011;8065;49.520;11.284;2023-08-31T00:03:49;2.83;;;2.60;;
15931;SDS011;8065;49.520;11.284;2023-08-31T00:06:17;5.07;;;3.03;;
15931;SDS011;8065;49.520;11.284;2023-08-31T00:08:47;3.07;;;2.77;;
15931;SDS011;8065;49.520;11.284;2023-08-31T00:11:15;3.30;;;3.10;;
15931;SDS011;8065;49.520;11.284;2023-08-31T00:13:43;4.47;;;3.10;;
15931;SDS011;8065;49.520;11.284;2023-08-31T00:16:12;4.23;;;2.90;;
15931;SDS011;8065;49.520;11.284;2023-08-31T00:18:40;3.07;;;2.87;;
15931;SDS011;8065;49.520;11.284;2023-08-31T00:21:12;3.60;;;3.17;;
15931;SDS011;8065;49.520;11.284;2023-08-31T00:23:41;4.73;;;3.40;;
15931;SDS011;8065;49.520;11.284;2023-08-31T00:26:09;4.27;;;3.50;;
15931;SDS011;8065;49.520;11.284;2023-08-31T00:28:37;3.87;;;3.43;;
15931;SDS011;8065;49.520;11.284;2023-08-31T00:31:07;4.07;;;3.33;;
15931;SDS011;8065;49.520;11.284;2023-08-31T00:33:37;4.53;;;3.47;;
15931;SDS011;8065;49.520;11.284;2023-08-31T00:36:06;4.97;;;4.07;;
15931;SDS011;8065;49.520;11.284;2023-08-31T00:38:37;5.50;;;3.70;;
15931;SDS011;8065;49.520;11.284;2023-08-31T00:41:05;5.03;;;4.10;;
15931;SDS011;8065;49.520;11.284;2023-08-31T00:43:34;7.10;;;4.00;;
15931;SDS011;8065;49.520;11.284;2023-08-31T00:46:03;7.17;;;3.97;;
15931;SDS011;8065;49.520;11.284;2023-08-31T00:48:31;5.00;;;3.57;;
15931;SDS011;8065;49.520;11.284;2023-08-31T00:51:00;4.73;;;3.70;;
15931;SDS011;8065;49.520;11.284;2023-08-31T00:53:29;4.37;;;3.50;;
15931;SDS011;8065;49.520;11.284;2023-08-31T00:56:01;3.13;;;2.93;;
15931;SDS011;8065;49.520;11.284;2023-08-31T00:58:31;4.10;;;3.70;;
15931;SDS011;8065;49.520;11.284;2023-08-31T01:01:02;4.80;;;4.00;;
15931;SDS011;8065;49.520;11.284;2023-08-31T01:03:35;3.90;;;3.53;;
15931;SDS011;8065;49.520;11.284;2023-08-31T01:06:12;3.53;;;3.23;;
15931;SDS011;8065;49.520;11.284;2023-08-31T01:08:48;4.10;;;3.47;;
15931;SDS011;8065;49.520;11.284;2023-08-31T01:11:37;4.17;;;2.90;;
15931;SDS011;8065;49.520;11.284;2023-08-31T01:14:18;3.77;;;2.67;;
15931;SDS011;8065;49.520;11.284;2023-08-31T01:16:50;3.20;;;2.90;;
15931;SDS011;8065;49.520;11.284;2023-08-31T01:19:25;3.57;;;2.63;;
15931;SDS011;8065;49.520;11.284;2023-08-31T01:22:05;4.17;;;2.80;;
15931;SDS011;8065;49.520;11.284;2023-08-31T01:24:40;4.83;;;3.10;;
15931;SDS011;8065;49.520;11.284;2023-08-31T01:27:08;5.97;;;3.20;;
15931;SDS011;8065;49.520;11.284;2023-08-31T01:29:38;4.80;;;2.83;;
15931;SDS011;8065;49.520;11.284;2023-08-31T01:32:06;3.90;;;3.07;;
15931;SDS011;8065;49.520;11.284;2023-08-31T01:34:35;2.60;;;2.47;;
15931;SDS011;8065;49.520;11.284;2023-08-31T01:37:05;3.03;;;2.83;;
15931;SDS011;8065;49.520;11.284;2023-08-31T01:39:46;3.03;;;2.80;;
15931;SDS011;8065;49.520;11.284;2023-08-31T01:42:20;3.30;;;3.00;;
15931;SDS011;8065;49.520;11.284;2023-08-31T01:44:51;3.27;;;2.93;;
15931;SDS011;8065;49.520;11.284;2023-08-31T01:47:20;5.17;;;2.80;;
15931;SDS011;8065;49.520;11.284;2023-08-31T01:49:49;3.13;;;2.73;;
15931;SDS011;8065;49.520;11.284;2023-08-31T01:52:19;3.10;;;2.90;;
15931;SDS011;8065;49.520;11.284;2023-08-31T01:54:49;3.20;;;2.90;;
15931;SDS011;8065;49.520;11.284;2023-08-31T01:57:18;3.80;;;3.00;;
15931;SDS011;8065;49.520;11.284;2023-08-31T01:59:46;3.00;;;2.70;;
15931;SDS011;8065;49.520;11.284;2023-08-31T02:02:14;2.73;;;2.53;;
15931;SDS011;8065;49.520;11.284;2023-08-31T02:04:43;3.27;;;3.03;;
15931;SDS011;8065;49.520;11.284;2023-08-31T02:07:11;3.20;;;2.67;;
15931;SDS011;8065;49.520;11.284;2023-08-31T02:09:40;3.20;;;3.00;;
15931;SDS011;8065;49.520;11.284;2023-08-31T02:12:10;2.47;;;2.37;;
15931;SDS011;8065;49.520;11.284;2023-08-31T02:14:39;3.67;;;3.30;;
15931;SDS011;8065;49.520;11.284;2023-08-31T02:17:07;3.70;;;3.30;;
15931;SDS011;8065;49.520;11.284;2023-08-31T02:19:35;3.40;;;3.10;;
15931;SDS011;8065;49.520;11.284;2023-08-31T02:22:04;6.40;;;3.30;;
15931;SDS011;8065;49.520;11.284;2023-08-31T02:24:32;3.00;;;2.80;;
15931;SDS011;8065;49.520;11.284;2023-08-31T02:27:00;2.80;;;2.60;;
15931;SDS011;8065;49.520;11.284;2023-08-31T02:29:31;3.43;;;3.13;;
15931;SDS011;8065;49.520;11.284;2023-08-31T02:31:59;3.40;;;3.10;;
15931;SDS011;8065;49.520;11.284;2023-08-31T02:34:28;3.40;;;3.20;;
15931;SDS011;8065;49.520;11.284;2023-08-31T02:36:56;3.60;;;3.30;;
15931;SDS011;8065;49.520;11.284;2023-08-31T02:39:24;3.50;;;3.17;;
15931;SDS011;8065;49.520;11.284;2023-08-31T02:41:53;4.40;;;3.40;;
15931;SDS011;8065;49.520;11.284;2023-08-31T02:44:21;5.70;;;3.27;;
15931;SDS011;8065;49.520;11.284;2023-08-31T02:46:52;3.83;;;3.33;;
15931;SDS011;8065;49.520;11.284;2023-08-31T02:49:21;4.13;;;3.70;;
15931;SDS011;8065;49.520;11.284;2023-08-31T02:51:49;4.00;;;3.60;;
15931;SDS011;8065;49.520;11.284;2023-08-31T02:54:17;4.10;;;3.70;;
15931;SDS011;8065;49.520;11.284;2023-08-31T02:56:46;3.93;;;3.53;;
15931;SDS011;8065;49.520;11.284;2023-08-31T02:59:15;3.30;;;3.10;;
15931;SDS011;8065;49.520;11.284;2023-08-31T03:01:44;3.53;;;3.23;;
15931;SDS011;8065;49.520;11.284;2023-08-31T03:04:15;3.80;;;3.50;;
15931;SDS011;8065;49.520;11.284;2023-08-31T03:06:43;3.43;;;3.23;;
15931;SDS011;8065;49.520;11.284;2023-08-31T03:09:12;3.93;;;3.53;;
15931;SDS011;8065;49.520;11.284;2023-08-31T03:11:41;4.03;;;3.63;;
15931;SDS011;8065;49.520;11.284;2023-08-31T03:14:09;3.50;;;3.00;;
15931;SDS011;8065;49.520;11.284;2023-08-31T03:16:37;3.67;;;3.07;;
15931;SDS011;8065;49.520;11.284;2023-08-31T03:19:05;3.33;;;3.03;;
15931;SDS011;8065;49.520;11.284;2023-08-31T03:21:36;3.70;;;2.90;;
15931;SDS011;8065;49.520;11.284;2023-08-31T03:24:05;4.50;;;3.40;;
15931;SDS011;8065;49.520;11.284;2023-08-31T03:26:33;3.37;;;3.07;;
15931;SDS011;8065;49.520;11.284;2023-08-31T03:29:02;3.63;;;3.33;;
15931;SDS011;8065;49.520;11.284;2023-08-31T03:31:30;3.50;;;3.20;;
15931;SDS011;8065;49.520;11.284;2023-08-31T03:33:58;4.23;;;3.37;;
15931;SDS011;8065;49.520;11.284;2023-08-31T03:36:27;3.27;;;2.97;;
15931;SDS011;8065;49.520;11.284;2023-08-31T03:38:57;4.50;;;3.33;;
15931;SDS011;8065;49.520;11.284;2023-08-31T03:41:26;4.20;;;2.90;;
15931;SDS011;8065;49.520;11.284;2023-08-31T03:43:54;6.93;;;3.40;;
15931;SDS011;8065;49.520;11.284;2023-08-31T03:46:23;4.17;;;3.53;;
15931;SDS011;8065;49.520;11.284;2023-08-31T03:48:51;4.87;;;3.47;;
15931;SDS011;8065;49.520;11.284;2023-08-31T03:51:20;3.93;;;3.60;;
15931;SDS011;8065;49.520;11.284;2023-08-31T03:53:48;3.13;;;2.93;;
15931;SDS011;8065;49.520;11.284;2023-08-31T03:56:19;3.60;;;3.30;;
15931;SDS011;8065;49.520;11.284;2023-08-31T03:58:47;4.30;;;3.40;;
15931;SDS011;8065;49.520;11.284;2023-08-31T04:01:16;5.30;;;3.60;;
15931;SDS011;8065;49.520;11.284;2023-08-31T04:03:44;3.90;;;3.40;;
15931;SDS011;8065;49.520;11.284;2023-08-31T04:06:12;4.60;;;3.60;;
15931;SDS011;8065;49.520;11.284;2023-08-31T04:08:41;3.70;;;3.40;;
15931;SDS011;8065;49.520;11.284;2023-08-31T04:11:09;5.13;;;3.70;;
15931;SDS011;8065;49.520;11.284;2023-08-31T04:13:40;3.40;;;3.10;;
15931;SDS011;8065;49.520;11.284;2023-08-31T04:16:08;4.70;;;3.40;;
15931;SDS011;8065;49.520;11.284;2023-08-31T04:18:37;3.53;;;3.13;;
15931;SDS011;8065;49.520;11.284;2023-08-31T04:21:05;5.60;;;3.53;;
15931;SDS011;8065;49.520;11.284;2023-08-31T04:23:34;6.57;;;3.57;;
15931;SDS011;8065;49.520;11.284;2023-08-31T04:26:09;4.60;;;3.77;;
15931;SDS011;8065;49.520;11.284;2023-08-31T04:28:40;3.60;;;3.17;;
15931;SDS011;8065;49.520;11.284;2023-08-31T04:31:09;4.33;;;3.23;;
15931;SDS011;8065;49.520;11.284;2023-08-31T04:33:38;3.83;;;3.40;;
15931;SDS011;8065;49.520;11.284;2023-08-31T04:36:07;3.70;;;3.40;;
15931;SDS011;8065;49.520;11.284;2023-08-31T04:38:35;4.13;;;3.30;;
15931;SDS011;8065;49.520;11.284;2023-08-31T04:41:03;3.10;;;2.80;;
15931;SDS011;8065;49.520;11.284;2023-08-31T04:43:31;3.77;;;3.47;;
15931;SDS011;8065;49.520;11.284;2023-08-31T04:46:02;3.43;;;3.13;;
15931;SDS011;8065;49.520;11.284;2023-08-31T04:48:31;4.57;;;3.10;;
15931;SDS011;8065;49.520;11.284;2023-08-31T04:50:59;4.00;;;3.60;;
15931;SDS011;8065;49.520;11.284;2023-08-31T04:53:29;3.60;;;3.30;;
15931;SDS011;8065;49.520;11.284;2023-08-31T04:55:58;4.63;;;3.50;;
15931;SDS011;8065;49.520;11.284;2023-08-31T04:58:26;3.80;;;3.33;;
15931;SDS011;8065;49.520;11.284;2023-08-31T05:00:54;3.93;;;3.53;;
15931;SDS011;8065;49.520;11.284;2023-08-31T05:03:25;4.40;;;3.60;;
15931;SDS011;8065;49.520;11.284;2023-08-31T05:05:53;3.57;;;3.10;;
15931;SDS011;8065;49.520;11.284;2023-08-31T05:08:22;6.03;;;3.77;;
15931;SDS011;8065;49.520;11.284;2023-08-31T05:10:50;6.30;;;3.80;;
15931;SDS011;8065;49.520;11.284;2023-08-31T05:13:18;4.30;;;3.70;;
15931;SDS011;8065;49.520;11.284;2023-08-31T05:15:46;4.37;;;3.97;;
15931;SDS011;8065;49.520;11.284;2023-08-31T05:18:15;6.03;;;3.70;;
15931;SDS011;8065;49.520;11.284;2023-08-31T05:20:46;4.93;;;3.83;;
15931;SDS011;8065;49.520;11.284;2023-08-31T05:23:15;5.60;;;3.70;;
15931;SDS011;8065;49.520;11.284;2023-08-31T05:25:43;4.57;;;4.13;;
15931;SDS011;8065;49.520;11.284;2023-08-31T05:28:12;4.90;;;4.40;;
15931;SDS011;8065;49.520;11.284;2023-08-31T05:30:47;5.10;;;4.30;;
15931;SDS011;8065;49.520;11.284;2023-08-31T05:33:17;10.57;;;4.67;;
15931;SDS011;8065;49.520;11.284;2023-08-31T05:35:49;7.80;;;5.00;;
15931;SDS011;8065;49.520;11.284;2023-08-31T05:38:18;6.50;;;4.90;;
15931;SDS011;8065;49.520;11.284;2023-08-31T05:40:46;5.43;;;4.70;;
15931;SDS011;8065;49.520;11.284;2023-08-31T05:43:14;7.20;;;4.90;;
15931;SDS011;8065;49.520;11.284;2023-08-31T05:45:43;5.87;;;4.77;;
15931;SDS011;8065;49.520;11.284;2023-08-31T05:48:11;5.60;;;4.90;;
15931;SDS011;8065;49.520;11.284;2023-08-31T05:50:40;5.07;;;4.67;;
15931;SDS011;8065;49.520;11.284;2023-08-31T05:53:11;5.00;;;4.50;;
15931;SDS011;8065;49.520;11.284;2023-08-31T05:55:40;5.07;;;4.27;;
15931;SDS011;8065;49.520;11.284;2023-08-31T05:58:08;5.30;;;4.77;;
15931;SDS011;8065;49.520;11.284;2023-08-31T06:00:36;5.43;;;4.93;;
15931;SDS011;8065;49.520;11.284;2023-08-31T06:03:05;6.63;;;5.20;;
15931;SDS011;8065;49.520;11.284;2023-08-31T06:05:34;6.13;;;5.30;;
15931;SDS011;8065;49.520;11.284;2023-08-31T06:08:03;9.17;;;5.53;;
15931;SDS011;8065;49.520;11.284;2023-08-31T06:10:35;8.63;;;6.30;;
15931;SDS011;8065;49.520;11.284;2023-08-31T06:13:03;8.67;;;6.53;;
15931;SDS011;8065;49.520;11.284;2023-08-31T06:15:31;7.87;;;6.13;;
15931;SDS011;8065;49.520;11.284;2023-08-31T06:18:00;6.40;;;5.80;;
15931;SDS011;8065;49.520;11.284;2023-08-31T06:20:28;8.03;;;5.90;;
15931;SDS011;8065;49.520;11.284;2023-08-31T06:22:56;7.53;;;6.27;;
15931;SDS011;8065;49.520;11.284;2023-08-31T06:25:25;10.20;;;6.93;;
15931;SDS011;8065;49.520;11.284;2023-08-31T06:27:56;5.93;;;5.30;;
15931;SDS011;8065;49.520;11.284;2023-08-31T06:30:24;7.30;;;6.60;;
15931;SDS011;8065;49.520;11.284;2023-08-31T06:32:52;8.83;;;7.33;;
15931;SDS011;8065;49.520;11.284;2023-08-31T06:35:21;9.53;;;7.17;;
15931;SDS011;8065;49.520;11.284;2023-08-31T06:37:49;7.93;;;6.33;;
15931;SDS011;8065;49.520;11.284;2023-08-31T06:40:18;8.00;;;7.20;;
15931;SDS011;8065;49.520;11.284;2023-08-31T06:42:46;10.90;;;7.97;;
15931;SDS011;8065;49.520;11.284;2023-08-31T06:45:17;8.03;;;7.23;;
15931;SDS011;8065;49.520;11.284;2023-08-31T06:47:45;8.53;;;7.30;;
15931;SDS011;8065;49.520;11.284;2023-08-31T06:50:14;10.80;;;8.50;;
15931;SDS011;8065;49.520;11.284;2023-08-31T06:52:42;11.57;;;7.73;;
15931;SDS011;8065;49.520;11.284;2023-08-31T06:55:11;9.60;;;7.67;;
15931;SDS011;8065;49.520;11.284;2023-08-31T06:57:40;8.83;;;7.60;;
15931;SDS011;8065;49.520;11.284;2023-08-31T07:00:09;9.83;;;7.57;;
15931;SDS011;8065;49.520;11.284;2023-08-31T07:02:41;10.40;;;8.27;;
15931;SDS011;8065;49.520;11.284;2023-08-31T07:05:10;10.93;;;8.50;;
15931;SDS011;8065;49.520;11.284;2023-08-31T07:07:39;9.17;;;8.20;;
15931;SDS011;8065;49.520;11.284;2023-08-31T07:10:07;7.90;;;7.20;;
15931;SDS011;8065;49.520;11.284;2023-08-31T07:12:36;9.17;;;7.43;;
15931;SDS011;8065;49.520;11.284;2023-08-31T07:15:05;10.33;;;8.00;;
15931;SDS011;8065;49.520;11.284;2023-08-31T07:17:33;10.20;;;7.47;;
15931;SDS011;8065;49.520;11.284;2023-08-31T07:20:05;8.20;;;6.83;;
15931;SDS011;8065;49.520;11.284;2023-08-31T07:22:35;8.67;;;7.53;;
15931;SDS011;8065;49.520;11.284;2023-08-31T07:25:03;10.00;;;7.90;;
15931;SDS011;8065;49.520;11.284;2023-08-31T07:27:33;7.87;;;7.00;;
15931;SDS011;8065;49.520;11.284;2023-08-31T07:30:01;10.17;;;7.27;;
15931;SDS011;8065;49.520;11.284;2023-08-31T07:32:31;7.47;;;6.77;;
15931;SDS011;8065;49.520;11.284;2023-08-31T07:35:00;8.10;;;6.20;;
15931;SDS011;8065;49.520;11.284;2023-08-31T07:37:32;8.63;;;6.50;;
15931;SDS011;8065;49.520;11.284;2023-08-31T07:40:02;7.57;;;6.23;;
15931;SDS011;8065;49.520;11.284;2023-08-31T07:42:33;6.80;;;6.20;;
15931;SDS011;8065;49.520;11.284;2023-08-31T07:45:01;8.07;;;6.83;;
15931;SDS011;8065;49.520;11.284;2023-08-31T07:47:30;6.03;;;5.53;;
15931;SDS011;8065;49.520;11.284;2023-08-31T07:49:59;6.43;;;5.63;;
15931;SDS011;8065;49.520;11.284;2023-08-31T07:52:27;8.90;;;6.33;;
15931;SDS011;8065;49.520;11.284;2023-08-31T07:54:58;9.33;;;5.73;;
15931;SDS011;8065;49.520;11.284;2023-08-31T07:57:28;7.00;;;5.03;;
15931;SDS011;8065;49.520;11.284;2023-08-31T07:59:57;9.23;;;5.70;;
15931;SDS011;8065;49.520;11.284;2023-08-31T08:02:25;7.93;;;5.57;;
15931;SDS011;8065;49.520;11.284;2023-08-31T08:04:53;6.37;;;5.40;;
15931;SDS011;8065;49.520;11.284;2023-08-31T08:07:22;8.00;;;4.20;;
15931;SDS011;8065;49.520;11.284;2023-08-31T08:09:50;6.70;;;5.10;;
15931;SDS011;8065;49.520;11.284;2023-08-31T08:12:21;6.93;;;4.33;;
15931;SDS011;8065;49.520;11.284;2023-08-31T08:14:50;5.00;;;4.40;;
15931;SDS011;8065;49.520;11.284;2023-08-31T08:17:18;6.73;;;4.30;;
15931;SDS011;8065;49.520;11.284;2023-08-31T08:19:46;6.37;;;4.00;;
15931;SDS011;8065;49.520;11.284;2023-08-31T08:22:14;7.17;;;4.53;;
15931;SDS011;8065;49.520;11.284;2023-08-31T08:24:43;5.73;;;3.77;;
15931;SDS011;8065;49.520;11.284;2023-08-31T08:27:11;5.10;;;3.63;;
15931;SDS011;8065;49.520;11.284;2023-08-31T08:29:42;7.27;;;3.60;;
15931;SDS011;8065;49.520;11.284;2023-08-31T08:32:10;3.67;;;2.90;;
15931;SDS011;8065;49.520;11.284;2023-08-31T08:34:39;7.90;;;3.47;;
15931;SDS011;8065;49.520;11.284;2023-08-31T08:37:07;6.70;;;2.97;;
15931;SDS011;8065;49.520;11.284;2023-08-31T08:39:35;4.77;;;3.07;;
15931;SDS011;8065;49.520;11.284;2023-08-31T08:42:04;3.17;;;2.40;;
15931;SDS011;8065;49.520;11.284;2023-08-31T08:44:34;3.20;;;2.43;;
15931;SDS011;8065;49.520;11.284;2023-08-31T08:47:06;7.00;;;3.03;;
15931;SDS011;8065;49.520;11.284;2023-08-31T08:49:35;5.67;;;3.13;;
15931;SDS011;8065;49.520;11.284;2023-08-31T08:52:04;5.47;;;3.03;;
15931;SDS011;8065;49.520;11.284;2023-08-31T08:54:33;4.80;;;3.13;;
15931;SDS011;8065;49.520;11.284;2023-08-31T08:57:03;5.03;;;2.90;;
15931;SDS011;8065;49.520;11.284;2023-08-31T08:59:31;5.60;;;3.20;;
15931;SDS011;8065;49.520;11.284;2023-08-31T09:02:00;4.77;;;3.30;;
15931;SDS011;8065;49.520;11.284;2023-08-31T09:04:31;7.27;;;3.77;;
15931;SDS011;8065;49.520;11.284;2023-08-31T09:07:00;4.70;;;3.40;;
15931;SDS011;8065;49.520;11.284;2023-08-31T09:09:28;4.77;;;3.10;;
15931;SDS011;8065;49.520;11.284;2023-08-31T09:11:57;6.63;;;2.90;;
15931;SDS011;8065;49.520;11.284;2023-08-31T09:14:34;4.23;;;2.27;;
15931;SDS011;8065;49.520;11.284;2023-08-31T09:17:02;3.60;;;2.30;;
15931;SDS011;8065;49.520;11.284;2023-08-31T09:19:34;3.50;;;2.40;;
15931;SDS011;8065;49.520;11.284;2023-08-31T09:22:02;4.77;;;2.10;;
15931;SDS011;8065;49.520;11.284;2023-08-31T09:24:39;3.20;;;2.13;;
15931;SDS011;8065;49.520;11.284;2023-08-31T09:27:10;4.97;;;2.27;;
15931;SDS011;8065;49.520;11.284;2023-08-31T09:29:39;3.53;;;2.50;;
15931;SDS011;8065;49.520;11.284;2023-08-31T09:32:15;3.80;;;2.30;;
15931;SDS011;8065;49.520;11.284;2023-08-31T09:34:46;4.50;;;2.37;;
15931;SDS011;8065;49.520;11.284;2023-08-31T09:37:15;4.90;;;2.27;;
15931;SDS011;8065;49.520;11.284;2023-08-31T09:39:44;3.53;;;2.10;;
15931;SDS011;8065;49.520;11.284;2023-08-31T09:42:12;4.20;;;2.27;;
15931;SDS011;8065;49.520;11.284;2023-08-31T09:44:41;3.77;;;2.50;;
15931;SDS011;8065;49.520;11.284;2023-08-31T09:47:12;4.50;;;2.43;;
15931;SDS011;8065;49.520;11.284;2023-08-31T09:49:41;3.40;;;1.90;;
15931;SDS011;8065;49.520;11.284;2023-08-31T09:52:13;2.13;;;1.90;;
15931;SDS011;8065;49.520;11.284;2023-08-31T09:54:42;1.97;;;1.83;;
15931;SDS011;8065;49.520;11.284;2023-08-31T09:57:11;3.87;;;1.97;;
15931;SDS011;8065;49.520;11.284;2023-08-31T09:59:42;3.83;;;2.00;;
15931;SDS011;8065;49.520;11.284;2023-08-31T10:02:11;3.13;;;2.27;;
15931;SDS011;8065;49.520;11.284;2023-08-31T10:04:42;5.30;;;1.97;;
15931;SDS011;8065;49.520;11.284;2023-08-31T10:07:15;4.33;;;2.00;;
15931;SDS011;8065;49.520;11.284;2023-08-31T10:09:44;2.57;;;1.90;;
15931;SDS011;8065;49.520;11.284;2023-08-31T10:12:13;3.97;;;1.93;;
15931;SDS011;8065;49.520;11.284;2023-08-31T10:14:42;3.10;;;2.03;;
15931;SDS011;8065;49.520;11.284;2023-08-31T10:17:11;3.97;;;1.73;;
15931;SDS011;8065;49.520;11.284;2023-08-31T10:19:40;2.57;;;1.67;;
15931;SDS011;8065;49.520;11.284;2023-08-31T10:22:08;2.73;;;1.70;;
15931;SDS011;8065;49.520;11.284;2023-08-31T10:27:35;3.73;;;1.87;;
15931;SDS011;8065;49.520;11.284;2023-08-31T10:35:52;2.73;;;1.97;;
15931;SDS011;8065;49.520;11.284;2023-08-31T10:38:26;2.33;;;2.00;;
15931;SDS011;8065;49.520;11.284;2023-08-31T10:41:17;2.03;;;1.83;;
15931;SDS011;8065;49.520;11.284;2023-08-31T10:43:51;2.73;;;1.70;;
15931;SDS011;8065;49.520;11.284;2023-08-31T10:46:29;2.53;;;1.60;;
15931;SDS011;8065;49.520;11.284;2023-08-31T10:48:59;3.00;;;1.90;;
15931;SDS011;8065;49.520;11.284;2023-08-31T10:51:29;3.87;;;2.00;;
15931;SDS011;8065;49.520;11.284;2023-08-31T10:54:08;4.30;;;2.20;;
15931;SDS011;8065;49.520;11.284;2023-08-31T10:56:44;4.80;;;1.97;;
15931;SDS011;8065;49.520;11.284;2023-08-31T10:59:21;2.93;;;1.93;;
15931;SDS011;8065;49.520;11.284;2023-08-31T11:01:56;3.20;;;2.27;;
15931;SDS011;8065;49.520;11.284;2023-08-31T11:04:28;3.43;;;2.20;;
15931;SDS011;8065;49.520;11.284;2023-08-31T11:07:12;3.13;;;2.00;;
15931;SDS011;8065;49.520;11.284;2023-08-31T11:09:42;3.90;;;2.33;;
15931;SDS011;8065;49.520;11.284;2023-08-31T11:12:14;4.67;;;2.60;;
15931;SDS011;8065;49.520;11.284;2023-08-31T11:14:43;3.43;;;2.03;;
15931;SDS011;8065;49.520;11.284;2023-08-31T11:17:11;4.03;;;2.50;;
15931;SDS011;8065;49.520;11.284;2023-08-31T11:19:39;2.43;;;2.20;;
15931;SDS011;8065;49.520;11.284;2023-08-31T11:22:09;3.63;;;2.50;;
15931;SDS011;8065;49.520;11.284;2023-08-31T11:24:38;4.10;;;2.30;;
15931;SDS011;8065;49.520;11.284;2023-08-31T11:27:09;3.80;;;2.40;;
15931;SDS011;8065;49.520;11.284;2023-08-31T11:29:42;3.53;;;2.23;;
15931;SDS011;8065;49.520;11.284;2023-08-31T11:32:11;3.93;;;2.30;;
15931;SDS011;8065;49.520;11.284;2023-08-31T11:34:40;2.93;;;2.20;;
15931;SDS011;8065;49.520;11.284;2023-08-31T11:37:09;4.07;;;2.40;;
15931;SDS011;8065;49.520;11.284;2023-08-31T11:39:41;4.90;;;2.70;;
15931;SDS011;8065;49.520;11.284;2023-08-31T11:42:10;2.97;;;2.43;;
15931;SDS011;8065;49.520;11.284;2023-08-31T11:44:41;4.27;;;2.60;;
15931;SDS011;8065;49.520;11.284;2023-08-31T11:47:09;3.43;;;2.73;;
15931;SDS011;8065;49.520;11.284;2023-08-31T11:49:38;5.00;;;2.73;;
15931;SDS011;8065;49.520;11.284;2023-08-31T11:52:09;3.20;;;2.23;;
15931;SDS011;8065;49.520;11.284;2023-08-31T11:54:38;3.63;;;2.33;;
15931;SDS011;8065;49.520;11.284;2023-08-31T11:57:07;5.47;;;2.47;;
15931;SDS011;8065;49.520;11.284;2023-08-31T11:59:36;3.13;;;2.27;;
15931;SDS011;8065;49.520;11.284;2023-08-31T12:02:09;2.77;;;2.00;;
15931;SDS011;8065;49.520;11.284;2023-08-31T12:04:43;4.87;;;2.40;;
15931;SDS011;8065;49.520;11.284;2023-08-31T12:07:15;4.00;;;2.40;;
15931;SDS011;8065;49.520;11.284;2023-08-31T12:09:44;2.30;;;2.10;;
15931;SDS011;8065;49.520;11.284;2023-08-31T12:12:13;3.03;;;2.40;;
15931;SDS011;8065;49.520;11.284;2023-08-31T12:14:42;3.37;;;2.10;;
15931;SDS011;8065;49.520;11.284;2023-08-31T12:17:14;6.20;;;2.60;;
15931;SDS011;8065;49.520;11.284;2023-08-31T12:19:47;2.97;;;2.10;;
15931;SDS011;8065;49.520;11.284;2023-08-31T12:22:15;2.00;;;1.90;;
15931;SDS011;8065;49.520;11.284;2023-08-31T12:24:43;2.57;;;1.80;;
15931;SDS011;8065;49.520;11.284;2023-08-31T12:27:11;2.93;;;2.00;;
15931;SDS011;8065;49.520;11.284;2023-08-31T12:29:40;3.70;;;2.13;;
15931;SDS011;8065;49.520;11.284;2023-08-31T12:32:08;3.73;;;2.10;;
15931;SDS011;8065;49.520;11.284;2023-08-31T12:34:39;4.83;;;1.90;;
15931;SDS011;8065;49.520;11.284;2023-08-31T12:37:07;2.03;;;1.80;;
15931;SDS011;8065;49.520;11.284;2023-08-31T12:39:36;5.40;;;2.37;;
15931;SDS011;8065;49.520;11.284;2023-08-31T12:42:04;2.67;;;1.97;;
15931;SDS011;8065;49.520;11.284;2023-08-31T12:44:32;4.57;;;2.13;;
15931;SDS011;8065;49.520;11.284;2023-08-31T12:47:02;3.57;;;2.03;;
15931;SDS011;8065;49.520;11.284;2023-08-31T12:49:31;4.70;;;2.17;;
15931;SDS011;8065;49.520;11.284;2023-08-31T12:52:02;2.33;;;1.70;;
15931;SDS011;8065;49.520;11.284;2023-08-31T12:54:33;3.87;;;1.87;;
15931;SDS011;8065;49.520;11.284;2023-08-31T12:57:01;3.40;;;1.90;;
15931;SDS011;8065;49.520;11.284;2023-08-31T12:59:30;2.97;;;1.60;;
15931;SDS011;8065;49.520;11.284;2023-08-31T13:01:58;2.50;;;2.10;;
15931;SDS011;8065;49.520;11.284;2023-08-31T13:04:28;3.03;;;1.80;;
15931;SDS011;8065;49.520;11.284;2023-08-31T13:06:57;3.80;;;1.93;;
15931;SDS011;8065;49.520;11.284;2023-08-31T13:09:27;1.73;;;1.60;;
15931;SDS011;8065;49.520;11.284;2023-08-31T13:11:56;2.67;;;1.70;;
15931;SDS011;8065;49.520;11.284;2023-08-31T13:14:24;3.53;;;1.73;;
15931;SDS011;8065;49.520;11.284;2023-08-31T13:16:52;3.53;;;1.80;;
15931;SDS011;8065;49.520;11.284;2023-08-31T13:19:21;3.57;;;1.80;;
15931;SDS011;8065;49.520;11.284;2023-08-31T13:21:49;6.47;;;1.63;;
15931;SDS011;8065;49.520;11.284;2023-08-31T13:24:17;2.67;;;1.50;;
15931;SDS011;8065;49.520;11.284;2023-08-31T13:26:49;3.80;;;1.90;;
15931;SDS011;8065;49.520;11.284;2023-08-31T13:29:17;2.87;;;1.70;;
15931;SDS011;8065;49.520;11.284;2023-08-31T13:31:46;2.03;;;1.80;;
15931;SDS011;8065;49.520;11.284;2023-08-31T13:34:14;2.43;;;1.70;;
15931;SDS011;8065;49.520;11.284;2023-08-31T13:36:43;1.73;;;1.63;;
15931;SDS011;8065;49.520;11.284;2023-08-31T13:39:12;4.33;;;1.83;;
15931;SDS011;8065;49.520;11.284;2023-08-31T13:41:40;2.30;;;1.80;;
15931;SDS011;8065;49.520;11.284;2023-08-31T13:44:13;2.60;;;1.80;;
15931;SDS011;8065;49.520;11.284;2023-08-31T13:46:41;3.23;;;1.70;;
15931;SDS011;8065;49.520;11.284;2023-08-31T13:49:10;1.50;;;1.40;;
15931;SDS011;8065;49.520;11.284;2023-08-31T13:51:38;2.83;;;1.70;;
15931;SDS011;8065;49.520;11.284;2023-08-31T13:54:06;2.47;;;1.50;;
15931;SDS011;8065;49.520;11.284;2023-08-31T13:56:35;1.97;;;1.67;;
15931;SDS011;8065;49.520;11.284;2023-08-31T13:59:03;2.80;;;1.53;;
15931;SDS011;8065;49.520;11.284;2023-08-31T14:01:34;3.97;;;1.57;;
15931;SDS011;8065;49.520;11.284;2023-08-31T14:04:03;1.37;;;1.27;;
15931;SDS011;8065;49.520;11.284;2023-08-31T14:06:32;2.00;;;1.50;;
15931;SDS011;8065;49.520;11.284;2023-08-31T14:09:01;2.80;;;1.70;;
15931;SDS011;8065;49.520;11.284;2023-08-31T14:11:30;2.40;;;1.70;;
15931;SDS011;8065;49.520;11.284;2023-08-31T14:14:02;1.70;;;1.60;;
15931;SDS011;8065;49.520;11.284;2023-08-31T14:16:38;4.30;;;1.60;;
15931;SDS011;8065;49.520;11.284;2023-08-31T14:19:06;2.00;;;1.40;;
15931;SDS011;8065;49.520;11.284;2023-08-31T14:21:36;2.50;;;1.70;;
15931;SDS011;8065;49.520;11.284;2023-08-31T14:24:05;2.77;;;1.70;;
15931;SDS011;8065;49.520;11.284;2023-08-31T14:26:34;2.90;;;1.53;;
15931;SDS011;8065;49.520;11.284;2023-08-31T14:29:02;2.63;;;1.70;;
15931;SDS011;8065;49.520;11.284;2023-08-31T14:31:30;3.17;;;1.40;;
15931;SDS011;8065;49.520;11.284;2023-08-31T14:34:01;2.70;;;1.63;;
15931;SDS011;8065;49.520;11.284;2023-08-31T14:36:29;2.47;;;1.67;;
15931;SDS011;8065;49.520;11.284;2023-08-31T14:38:58;2.17;;;1.60;;
15931;SDS011;8065;49.520;11.284;2023-08-31T14:41:27;3.03;;;1.53;;
15931;SDS011;8065;49.520;11.284;2023-08-31T14:43:55;5.67;;;1.63;;
15931;SDS011;8065;49.520;11.284;2023-08-31T14:46:23;3.87;;;1.60;;
15931;SDS011;8065;49.520;11.284;2023-08-31T14:48:52;2.57;;;1.40;;
15931;SDS011;8065;49.520;11.284;2023-08-31T14:51:22;2.17;;;1.63;;
15931;SDS011;8065;49.520;11.284;2023-08-31T14:53:51;2.53;;;1.63;;
15931;SDS011;8065;49.520;11.284;2023-08-31T14:56:19;3.37;;;1.70;;
15931;SDS011;8065;49.520;11.284;2023-08-31T14:58:47;2.00;;;1.70;;
15931;SDS011;8065;49.520;11.284;2023-08-31T15:01:16;5.43;;;1.73;;
15931;SDS011;8065;49.520;11.284;2023-08-31T15:03:44;4.30;;;1.80;;
15931;SDS011;8065;49.520;11.284;2023-08-31T15:06:12;3.03;;;1.60;;
15931;SDS011;8065;49.520;11.284;2023-08-31T15:08:48;1.67;;;1.57;;
15931;SDS011;8065;49.520;11.284;2023-08-31T15:11:16;2.00;;;1.67;;